Time;durP1;ratioP1;P1;durP2;ratioP2;P2;SDS_P1;SDS_P2;PMS_P1;PMS_P2;Temp;Humidity;BMP_temperature;BMP_pressure;BME280_temperature;BME280_humidity;BME280_pressure;Samples;Min_cycle;Max_cycle;Signal;HPM_P1;HPM_P2
2022/01/27 00:00:49;;;;;;;7.18;5.55;;;18.00;56.10;;;;;;10620329;27;20035;-57
2022/01/27 00:06:05;;;;;;;6.32;5.15;;;18.00;55.90;;;;;;10580375;28;20057;-56
2022/01/27 00:11:13;;;;;;;7.85;5.78;;;18.10;55.70;;;;;;10606474;27;20042;-56
2022/01/27 00:16:22;;;;;;;7.50;5.82;;;18.10;55.70;;;;;;10622550;27;20023;-56
2022/01/27 00:21:28;;;;;;;6.43;4.93;;;18.00;55.50;;;;;;10590829;28;20039;-56
2022/01/27 00:26:29;;;;;;;7.07;5.07;;;18.10;55.60;;;;;;10591373;28;20032;-56
2022/01/27 00:31:30;;;;;;;7.20;5.32;;;18.10;55.50;;;;;;10586966;28;20371;-57
2022/01/27 00:36:33;;;;;;;6.90;4.65;;;18.10;55.50;;;;;;10580951;28;20110;-56
2022/01/27 00:41:33;;;;;;;5.35;4.47;;;18.10;55.50;;;;;;10575459;28;20036;-56
2022/01/27 00:46:36;;;;;;;5.72;4.57;;;18.00;55.60;;;;;;10579408;28;20019;-57
2022/01/27 00:51:39;;;;;;;6.13;4.85;;;18.00;55.40;;;;;;10579481;28;20024;-56
2022/01/27 01:02:27;;;;;;;5.43;4.20;;;18.10;55.30;;;;;;10503891;28;20118;-56
2022/01/27 01:07:33;;;;;;;6.55;4.75;;;18.00;55.10;;;;;;10594437;27;20054;-57
2022/01/27 01:18:18;;;;;;;5.65;4.20;;;18.10;55.20;;;;;;10563016;28;20475;-56
2022/01/27 01:34:18;;;;;;;6.63;4.13;;;18.00;55.40;;;;;;10608184;27;20044;-57
2022/01/27 01:39:20;;;;;;;5.13;4.30;;;18.00;55.40;;;;;;10592367;27;20043;-55
2022/01/27 01:44:21;;;;;;;5.20;3.60;;;18.00;55.40;;;;;;10628400;27;20388;-56
2022/01/27 01:49:26;;;;;;;5.60;4.05;;;18.00;55.20;;;;;;10627371;27;20035;-57
2022/01/27 01:54:26;;;;;;;5.60;3.97;;;18.00;55.30;;;;;;10587076;27;20036;-56
2022/01/27 01:59:27;;;;;;;7.40;4.90;;;18.00;55.20;;;;;;10566865;28;20043;-56
2022/01/27 02:04:28;;;;;;;4.95;3.80;;;18.00;55.20;;;;;;10581274;27;20028;-56
2022/01/27 02:09:49;;;;;;;6.32;4.18;;;18.00;55.00;;;;;;10619849;27;20677;-57
2022/01/27 02:20:10;;;;;;;5.47;4.03;;;18.00;55.10;;;;;;10597521;27;20403;-56
2022/01/27 02:25:11;;;;;;;6.43;3.90;;;18.00;55.10;;;;;;10574531;27;20643;-56
2022/01/27 02:30:12;;;;;;;4.90;4.40;;;18.00;55.00;;;;;;10579382;27;20023;-57
2022/01/27 02:35:13;;;;;;;4.60;4.07;;;18.00;55.00;;;;;;10601209;27;20077;-55
2022/01/27 02:40:26;;;;;;;5.68;3.92;;;18.00;55.00;;;;;;10578935;27;20035;-56
2022/01/27 02:45:40;;;;;;;5.72;4.20;;;18.00;55.00;;;;;;10583488;27;20040;-56
2022/01/27 02:50:43;;;;;;;4.50;3.47;;;18.00;54.90;;;;;;10595292;27;20027;-57
2022/01/27 02:55:44;;;;;;;5.30;4.18;;;18.00;54.90;;;;;;10579406;28;20045;-57
2022/01/27 03:00:45;;;;;;;5.97;3.55;;;18.00;54.90;;;;;;10573191;27;20130;-56
2022/01/27 03:05:46;;;;;;;5.93;3.97;;;18.00;54.90;;;;;;10593931;27;20029;-56
2022/01/27 03:11:02;;;;;;;6.13;4.05;;;18.00;54.80;;;;;;10577934;27;20063;-57
2022/01/27 03:16:06;;;;;;;5.85;4.05;;;18.00;54.80;;;;;;10581584;27;20038;-56
2022/01/27 03:21:09;;;;;;;5.15;3.63;;;18.00;55.40;;;;;;10581463;28;20078;-56
2022/01/27 03:26:10;;;;;;;5.40;3.72;;;18.00;54.90;;;;;;10573314;27;20719;-57
2022/01/27 03:31:11;;;;;;;5.00;3.95;;;18.00;54.70;;;;;;10599206;27;20079;-56
2022/01/27 03:36:14;;;;;;;4.57;3.83;;;18.00;54.80;;;;;;10609496;27;20110;-56
2022/01/27 03:41:20;;;;;;;4.15;3.35;;;18.00;54.70;;;;;;10576204;27;20023;-56
2022/01/27 03:46:20;;;;;;;4.25;3.47;;;18.00;54.70;;;;;;10623411;27;20023;-57
2022/01/27 03:51:21;;;;;;;6.10;4.40;;;18.00;54.80;;;;;;10591070;27;20126;-56
2022/01/27 03:56:22;;;;;;;5.28;4.20;;;18.00;54.70;;;;;;10602589;27;20020;-56
2022/01/27 04:01:24;;;;;;;4.68;3.45;;;18.00;54.60;;;;;;10580319;28;20035;-56
2022/01/27 04:06:33;;;;;;;5.47;3.63;;;18.00;54.70;;;;;;10562275;28;20139;-55
2022/01/27 04:11:35;;;;;;;5.47;3.92;;;18.00;54.70;;;;;;10584899;27;20511;-57
2022/01/27 04:16:36;;;;;;;5.50;3.80;;;18.00;54.50;;;;;;10620740;27;20455;-56
2022/01/27 04:21:37;;;;;;;4.93;3.40;;;18.00;54.50;;;;;;10576536;28;20043;-56
2022/01/27 04:26:45;;;;;;;5.00;4.07;;;18.00;54.50;;;;;;10602688;28;20023;-56
2022/01/27 04:31:47;;;;;;;6.00;4.22;;;18.00;54.40;;;;;;10580599;28;20103;-56
2022/01/27 04:36:47;;;;;;;4.30;3.33;;;18.00;54.40;;;;;;10583188;28;20031;-57
2022/01/27 04:41:58;;;;;;;7.72;4.82;;;18.00;55.10;;;;;;10603143;27;20035;-55
2022/01/27 04:47:08;;;;;;;5.20;3.88;;;18.00;54.40;;;;;;10630826;27;20114;-56
2022/01/27 04:52:09;;;;;;;4.97;3.83;;;18.00;54.40;;;;;;10586712;27;20032;-56
2022/01/27 04:57:10;;;;;;;5.22;3.80;;;18.00;54.40;;;;;;10629199;27;20131;-55
2022/01/27 05:07:40;;;;;;;5.32;3.83;;;18.00;54.40;;;;;;10567831;28;20866;-55
2022/01/27 05:12:48;;;;;;;6.72;3.70;;;18.00;54.30;;;;;;10587096;28;20024;-57
2022/01/27 05:17:51;;;;;;;5.13;3.80;;;18.00;54.30;;;;;;10586487;28;20080;-56
2022/01/27 05:22:53;;;;;;;4.25;3.20;;;18.10;54.20;;;;;;10585971;27;20384;-56
2022/01/27 05:27:53;;;;;;;6.60;3.63;;;18.10;54.30;;;;;;10585017;28;20027;-56
2022/01/27 05:32:54;;;;;;;5.75;3.45;;;18.10;54.10;;;;;;10590113;27;20480;-56
2022/01/27 05:37:55;;;;;;;4.03;2.90;;;18.00;54.20;;;;;;10593138;27;20140;-57
2022/01/27 05:42:55;;;;;;;7.32;3.63;;;18.00;54.20;;;;;;10598213;27;20035;-57
2022/01/27 05:47:56;;;;;;;8.38;4.35;;;18.00;54.90;;;;;;10602924;27;20395;-54
2022/01/27 05:52:57;;;;;;;8.48;3.92;;;18.10;55.70;;;;;;10598689;27;20529;-54
2022/01/27 05:57:58;;;;;;;15.20;4.40;;;18.10;56.70;;;;;;10585920;27;20436;-55
2022/01/27 06:02:59;;;;;;;6.90;4.53;;;18.00;57.00;;;;;;10613623;27;20037;-58
2022/01/27 06:07:59;;;;;;;11.10;4.30;;;18.00;57.40;;;;;;10584313;27;20027;-57
2022/01/27 06:13:00;;;;;;;7.30;3.63;;;18.10;57.70;;;;;;10594879;27;20031;-58
2022/01/27 06:18:01;;;;;;;7.57;4.10;;;18.10;56.80;;;;;;10610674;27;20110;-58
2022/01/27 06:23:02;;;;;;;12.07;4.32;;;18.10;56.70;;;;;;10610627;27;20090;-58
2022/01/27 06:28:03;;;;;;;9.85;3.92;;;18.10;56.80;;;;;;10588301;27;20560;-54
2022/01/27 06:33:05;;;;;;;17.75;5.03;;;18.10;57.50;;;;;;10586627;27;20031;-58
2022/01/27 06:38:06;;;;;;;13.07;4.53;;;18.10;57.40;;;;;;10598638;27;20036;-57
2022/01/27 06:43:07;;;;;;;15.60;4.38;;;18.10;57.00;;;;;;10586320;27;20023;-59
2022/01/27 06:48:08;;;;;;;14.00;5.28;;;18.00;57.10;;;;;;10591658;27;20114;-59
2022/01/27 06:53:09;;;;;;;16.42;4.38;;;17.90;57.10;;;;;;10581884;28;20681;-60
2022/01/27 06:58:10;;;;;;;10.88;3.78;;;17.90;56.90;;;;;;10592854;27;20067;-60
2022/01/27 07:03:10;;;;;;;14.25;4.00;;;18.00;56.60;;;;;;10582234;27;20134;-61
2022/01/27 07:08:11;;;;;;;14.88;4.82;;;18.00;56.60;;;;;;10599395;27;20031;-56
2022/01/27 07:13:12;;;;;;;13.77;3.65;;;17.90;57.20;;;;;;10587021;27;20567;-59
2022/01/27 07:18:12;;;;;;;12.18;4.03;;;18.00;57.10;;;;;;10617660;27;20452;-59
2022/01/27 07:23:13;;;;;;;9.00;3.67;;;18.20;56.10;;;;;;10553463;28;20142;-59
2022/01/27 07:28:14;;;;;;;11.00;3.78;;;18.20;56.00;;;;;;10547808;28;20345;-58
2022/01/27 07:33:14;;;;;;;7.82;3.78;;;18.10;56.20;;;;;;10557084;28;20041;-59
2022/01/27 07:38:15;;;;;;;6.70;3.50;;;18.00;56.50;;;;;;10522153;28;20038;-59
2022/01/27 07:43:16;;;;;;;10.85;4.63;;;17.80;56.80;;;;;;10549618;28;20119;-59
2022/01/27 07:48:17;;;;;;;7.90;2.85;;;17.70;57.20;;;;;;10548934;28;20076;-59
2022/01/27 07:53:18;;;;;;;8.10;3.47;;;17.60;57.40;;;;;;10547616;28;20055;-56
2022/01/27 07:58:19;;;;;;;5.88;3.00;;;17.70;57.30;;;;;;10547431;28;20067;-59
2022/01/27 08:03:20;;;;;;;5.95;2.78;;;17.70;57.00;;;;;;10563281;28;20143;-59
2022/01/27 08:08:20;;;;;;;8.27;3.35;;;17.80;56.80;;;;;;10549772;28;20095;-59
2022/01/27 08:13:21;;;;;;;4.95;2.97;;;17.80;56.50;;;;;;10575827;28;20027;-59
2022/01/27 08:18:22;;;;;;;4.43;3.22;;;17.80;56.60;;;;;;10520172;28;20039;-59
2022/01/27 08:23:22;;;;;;;5.93;3.08;;;17.80;56.40;;;;;;10578547;28;20039;-59
2022/01/27 08:28:30;;;;;;;4.55;2.90;;;17.80;56.40;;;;;;10579177;28;20026;-59
2022/01/27 08:33:33;;;;;;;6.50;3.00;;;17.80;56.50;;;;;;10590406;28;20402;-59
2022/01/27 08:38:36;;;;;;;5.28;2.85;;;17.80;56.40;;;;;;10575005;28;20100;-59
2022/01/27 08:43:37;;;;;;;6.22;2.85;;;17.80;56.40;;;;;;10592434;28;20028;-59
2022/01/27 08:48:41;;;;;;;5.85;2.67;;;17.80;56.40;;;;;;10574516;28;20026;-59
2022/01/27 08:53:41;;;;;;;4.82;2.83;;;17.80;56.30;;;;;;10574653;28;20042;-59
2022/01/27 08:58:42;;;;;;;4.68;2.58;;;17.80;56.30;;;;;;10587865;28;20099;-59
2022/01/27 09:03:43;;;;;;;4.28;2.50;;;17.80;56.30;;;;;;10592269;28;20047;-59
2022/01/27 09:08:44;;;;;;;4.15;3.08;;;17.80;56.30;;;;;;10620503;28;20027;-60
2022/01/27 09:13:44;;;;;;;4.80;2.75;;;17.90;56.20;;;;;;10620782;28;20102;-58
2022/01/27 09:18:45;;;;;;;6.38;2.72;;;17.80;56.20;;;;;;10589178;28;20452;-59
2022/01/27 09:23:48;;;;;;;4.15;2.42;;;17.80;56.10;;;;;;10583403;28;20100;-59
2022/01/27 09:28:48;;;;;;;3.60;2.22;;;17.90;56.20;;;;;;10590694;28;20379;-58
2022/01/27 09:33:49;;;;;;;3.95;2.40;;;17.90;56.10;;;;;;10591228;27;20047;-59
2022/01/27 09:38:49;;;;;;;4.63;2.35;;;17.90;56.20;;;;;;10585571;28;20110;-58
2022/01/27 09:43:53;;;;;;;3.67;2.25;;;17.90;56.20;;;;;;10585272;28;20111;-58
2022/01/27 09:48:54;;;;;;;3.50;2.00;;;17.80;56.30;;;;;;10594173;27;20176;-59
2022/01/27 09:53:57;;;;;;;4.55;2.42;;;17.80;56.40;;;;;;10607785;27;20015;-59
2022/01/27 09:58:57;;;;;;;6.32;2.95;;;17.80;56.30;;;;;;10580167;27;20074;-60
2022/01/27 10:04:00;;;;;;;4.15;2.30;;;17.80;56.20;;;;;;10563929;27;20016;-59
2022/01/27 10:09:16;;;;;;;4.75;2.05;;;17.80;56.20;;;;;;10579857;27;20031;-59
2022/01/27 10:14:35;;;;;;;3.78;2.17;;;17.90;56.10;;;;;;10563016;27;20024;-59
2022/01/27 10:19:36;;;;;;;4.38;2.30;;;17.80;56.20;;;;;;10594425;27;20348;-59
2022/01/27 10:24:37;;;;;;;2.97;1.83;;;17.90;56.20;;;;;;10564925;28;20024;-59
2022/01/27 10:29:49;;;;;;;5.78;2.25;;;17.80;56.20;;;;;;10592564;27;20032;-57
2022/01/27 10:35:00;;;;;;;3.17;1.88;;;17.80;56.30;;;;;;10593474;27;20027;-59
2022/01/27 10:40:01;;;;;;;4.70;1.70;;;17.80;56.20;;;;;;10578624;27;20092;-59
2022/01/27 10:45:07;;;;;;;3.55;1.80;;;17.80;56.20;;;;;;10578396;27;20456;-59
2022/01/27 10:50:10;;;;;;;2.75;1.88;;;17.80;56.20;;;;;;10582421;28;20039;-59
2022/01/27 10:55:18;;;;;;;2.63;1.63;;;17.80;56.20;;;;;;10582383;28;20175;-59
2022/01/27 11:00:22;;;;;;;3.13;1.65;;;17.90;56.20;;;;;;10593875;27;20036;-59
2022/01/27 11:05:26;;;;;;;3.65;1.92;;;17.80;56.20;;;;;;10605116;27;20027;-59
2022/01/27 11:10:27;;;;;;;3.05;1.70;;;17.80;56.10;;;;;;10592322;27;20083;-59
2022/01/27 11:15:28;;;;;;;2.65;1.98;;;17.90;56.20;;;;;;10591975;27;20031;-59
2022/01/27 11:20:38;;;;;;;3.38;1.70;;;17.90;56.10;;;;;;10605016;27;20144;-59
2022/01/27 11:31:17;;;;;;;1.70;1.30;;;17.90;56.00;;;;;;10576690;27;20575;-59
2022/01/27 11:36:22;;;;;;;2.25;1.70;;;17.90;55.90;;;;;;10591180;27;20027;-59
2022/01/27 11:41:43;;;;;;;3.55;1.77;;;17.90;55.90;;;;;;10576711;27;20088;-59
2022/01/27 11:47:10;;;;;;;3.63;1.63;;;17.90;55.90;;;;;;10591054;27;20020;-59
2022/01/27 11:52:48;;;;;;;3.25;1.38;;;18.00;55.70;;;;;;10589077;27;20498;-59
2022/01/27 11:57:50;;;;;;;2.90;1.83;;;18.10;55.50;;;;;;10601406;27;20099;-59
2022/01/27 12:03:04;;;;;;;2.47;1.60;;;18.10;55.60;;;;;;10602141;27;20032;-59
2022/01/27 12:08:13;;;;;;;2.38;1.73;;;18.00;55.70;;;;;;10579824;28;20043;-59
2022/01/27 12:13:49;;;;;;;3.53;2.15;;;18.00;55.80;;;;;;10593029;27;20028;-57
2022/01/27 12:19:20;;;;;;;4.07;1.90;;;18.00;55.90;;;;;;10578929;27;20498;-59
2022/01/27 12:24:28;;;;;;;2.25;1.40;;;18.00;55.90;;;;;;10594234;28;20065;-59
2022/01/27 12:29:41;;;;;;;2.42;1.48;;;18.00;55.90;;;;;;10600756;28;20128;-59
2022/01/27 12:34:52;;;;;;;2.28;1.30;;;18.00;56.00;;;;;;10621246;28;20031;-59
2022/01/27 12:39:57;;;;;;;2.33;1.60;;;18.00;55.90;;;;;;10603141;28;20027;-59
2022/01/27 12:45:10;;;;;;;2.40;1.58;;;18.00;55.90;;;;;;10588021;28;20038;-58
2022/01/27 12:50:18;;;;;;;3.08;1.90;;;17.90;55.90;;;;;;10592587;28;20492;-58
2022/01/27 12:55:33;;;;;;;3.65;2.00;;;18.00;55.90;;;;;;10560430;28;20449;-59
2022/01/27 13:00:51;;;;;;;2.90;1.55;;;18.00;55.90;;;;;;10592181;27;20019;-59
2022/01/27 13:05:53;;;;;;;3.42;1.92;;;17.90;56.00;;;;;;10616674;27;20042;-59
2022/01/27 13:11:00;;;;;;;6.50;1.83;;;18.00;55.90;;;;;;10591680;27;20464;-59
2022/01/27 13:16:06;;;;;;;3.17;1.55;;;18.00;55.90;;;;;;10565209;27;20035;-59
2022/01/27 13:21:26;;;;;;;2.38;1.20;;;18.00;55.90;;;;;;10581737;27;20038;-59
2022/01/27 13:26:27;;;;;;;2.00;1.30;;;18.00;55.90;;;;;;10585941;28;20085;-59
2022/01/27 13:31:28;;;;;;;1.77;1.25;;;18.00;56.50;;;;;;10585462;28;20019;-58
2022/01/27 13:36:32;;;;;;;2.47;1.83;;;18.10;55.80;;;;;;10591993;27;20035;-59
2022/01/27 13:41:35;;;;;;;2.83;1.40;;;18.10;55.70;;;;;;10580819;27;20023;-59
2022/01/27 13:46:40;;;;;;;3.78;1.60;;;18.10;55.70;;;;;;10581050;27;20114;-59
2022/01/27 13:51:51;;;;;;;2.70;1.70;;;18.20;55.60;;;;;;10580203;27;20034;-59
2022/01/27 13:56:52;;;;;;;2.17;1.40;;;18.10;55.80;;;;;;10580428;27;20139;-59
2022/01/27 14:02:13;;;;;;;3.38;1.48;;;18.20;55.80;;;;;;10584469;28;20095;-59
2022/01/27 14:07:25;;;;;;;1.52;1.20;;;18.10;55.90;;;;;;10595529;27;20019;-58
2022/01/27 14:12:43;;;;;;;1.38;1.00;;;18.10;55.90;;;;;;10594664;27;20035;-59
2022/01/27 14:17:43;;;;;;;1.77;1.20;;;18.20;55.80;;;;;;10596995;27;20031;-59
2022/01/27 14:22:50;;;;;;;2.40;1.23;;;18.10;55.80;;;;;;10625664;27;20043;-59
2022/01/27 14:27:51;;;;;;;3.55;1.17;;;18.10;55.70;;;;;;10594570;27;20019;-59
2022/01/27 14:32:52;;;;;;;2.75;1.50;;;18.10;56.00;;;;;;10615467;27;20049;-57
2022/01/27 14:37:57;;;;;;;2.05;1.05;;;18.10;55.80;;;;;;10606071;27;20489;-59
2022/01/27 14:43:01;;;;;;;3.05;1.05;;;18.10;55.70;;;;;;10590834;27;20038;-59
2022/01/27 14:48:03;;;;;;;3.35;1.80;;;18.10;55.90;;;;;;10561325;27;20031;-59
2022/01/27 14:53:06;;;;;;;2.83;1.52;;;18.10;55.90;;;;;;10578149;27;20030;-59
2022/01/27 14:58:06;;;;;;;1.83;1.00;;;18.10;56.00;;;;;;10591723;27;20559;-59
2022/01/27 15:03:07;;;;;;;2.63;1.30;;;17.90;56.20;;;;;;10595664;27;20164;-59
2022/01/27 15:08:08;;;;;;;2.83;1.38;;;18.00;56.00;;;;;;10600644;27;20019;-59
2022/01/27 15:13:11;;;;;;;2.58;1.33;;;18.00;55.90;;;;;;10624176;27;20117;-59
2022/01/27 15:23:32;;;;;;;3.28;1.67;;;18.10;55.90;;;;;;10595339;27;20063;-59
2022/01/27 15:28:33;;;;;;;2.70;1.17;;;18.10;55.90;;;;;;10590770;27;20424;-59
2022/01/27 15:33:38;;;;;;;4.00;1.17;;;18.00;55.90;;;;;;10616204;27;20080;-59
2022/01/27 15:38:39;;;;;;;1.88;0.95;;;18.10;56.00;;;;;;10580462;28;20038;-59
2022/01/27 15:43:39;;;;;;;2.10;1.10;;;18.10;56.00;;;;;;10559157;27;20030;-59
2022/01/27 15:48:42;;;;;;;2.53;1.35;;;18.00;55.90;;;;;;10594301;27;20107;-58
2022/01/27 15:53:42;;;;;;;2.03;1.13;;;18.00;55.90;;;;;;10557543;28;20126;-59
2022/01/27 15:58:43;;;;;;;2.45;1.50;;;18.00;55.90;;;;;;10575424;27;20197;-59
2022/01/27 16:03:44;;;;;;;2.15;1.13;;;17.90;56.00;;;;;;10587995;27;20031;-58
2022/01/27 16:08:45;;;;;;;2.85;1.05;;;18.00;55.90;;;;;;10576580;27;20145;-59
2022/01/27 16:13:46;;;;;;;2.15;0.85;;;18.00;55.90;;;;;;10605959;27;20483;-57
2022/01/27 16:18:47;;;;;;;3.30;1.13;;;17.90;56.20;;;;;;10574427;27;20128;-56
2022/01/27 16:23:47;;;;;;;2.53;1.35;;;17.90;55.90;;;;;;10562641;28;20401;-58
2022/01/27 16:28:48;;;;;;;1.27;0.95;;;18.00;55.90;;;;;;10607389;28;20035;-59
2022/01/27 16:33:49;;;;;;;3.15;1.02;;;17.80;56.20;;;;;;10585238;28;20448;-60
2022/01/27 16:38:52;;;;;;;3.47;1.15;;;17.90;55.90;;;;;;10582615;27;20461;-57
2022/01/27 16:43:52;;;;;;;2.42;1.17;;;17.90;56.50;;;;;;10595137;27;20035;-59
2022/01/27 16:48:53;;;;;;;3.40;0.90;;;17.80;56.00;;;;;;10613962;27;20023;-60
2022/01/27 16:53:55;;;;;;;2.25;1.27;;;17.90;55.90;;;;;;10595919;27;20040;-58
2022/01/27 16:58:56;;;;;;;9.07;1.58;;;17.90;55.90;;;;;;10585352;27;20493;-60
2022/01/27 17:03:57;;;;;;;12.10;1.77;;;17.90;56.40;;;;;;10597917;27;20020;-60
2022/01/27 17:08:58;;;;;;;9.95;1.80;;;17.90;56.80;;;;;;10628536;27;20035;-60
2022/01/27 17:13:59;;;;;;;7.15;1.58;;;18.00;58.50;;;;;;10597562;27;20039;-59
2022/01/27 17:18:59;;;;;;;7.63;1.90;;;18.10;58.80;;;;;;10593959;27;20622;-60
2022/01/27 17:24:00;;;;;;;10.23;1.73;;;18.10;58.80;;;;;;10586659;28;20533;-57
2022/01/27 17:29:01;;;;;;;12.35;2.60;;;18.20;59.20;;;;;;10609348;27;20530;-60
2022/01/27 17:34:03;;;;;;;10.15;2.13;;;18.10;59.20;;;;;;10576868;27;20023;-58
2022/01/27 17:39:05;;;;;;;8.90;1.67;;;18.00;59.90;;;;;;10608072;27;20031;-57
2022/01/27 17:44:13;;;;;;;16.00;2.80;;;18.00;60.10;;;;;;10570648;28;20055;-57
2022/01/27 17:49:14;;;;;;;14.52;2.10;;;18.00;60.20;;;;;;10604291;27;20031;-59
2022/01/27 17:54:15;;;;;;;11.27;2.50;;;17.90;59.90;;;;;;10586157;27;20388;-59
2022/01/27 17:59:16;;;;;;;13.88;2.78;;;17.80;59.90;;;;;;10595203;27;20370;-59
2022/01/27 18:04:17;;;;;;;8.30;2.10;;;17.70;60.10;;;;;;10585064;28;20102;-59
2022/01/27 18:09:17;;;;;;;6.53;2.28;;;17.60;60.10;;;;;;10585274;28;20024;-58
2022/01/27 18:14:19;;;;;;;4.93;2.20;;;17.60;60.00;;;;;;10587166;27;20127;-58
2022/01/27 18:19:19;;;;;;;7.20;2.30;;;17.60;60.20;;;;;;10600307;27;20131;-58
2022/01/27 18:24:20;;;;;;;15.38;4.13;;;17.60;60.00;;;;;;10590376;27;20102;-58
2022/01/27 18:29:21;;;;;;;7.25;2.05;;;17.60;60.00;;;;;;10618842;27;20023;-58
2022/01/27 18:34:22;;;;;;;6.45;1.63;;;17.60;59.40;;;;;;10604463;27;20084;-58
2022/01/27 18:39:23;;;;;;;8.48;2.17;;;17.70;59.10;;;;;;10626201;27;20080;-57
2022/01/27 18:44:24;;;;;;;6.25;1.90;;;17.70;58.80;;;;;;10593265;27;20158;-57
2022/01/27 18:49:25;;;;;;;9.00;1.70;;;17.90;58.80;;;;;;10616970;27;20031;-59
2022/01/27 18:54:26;;;;;;;9.38;2.55;;;17.90;58.70;;;;;;10602908;27;20032;-59
2022/01/27 18:59:32;;;;;;;6.30;1.80;;;17.90;58.90;;;;;;10595155;27;20054;-59
2022/01/27 19:04:32;;;;;;;5.80;2.13;;;17.90;58.70;;;;;;10580275;27;20032;-59
2022/01/27 19:09:37;;;;;;;7.82;2.10;;;17.80;59.30;;;;;;10581858;27;20023;-59
2022/01/27 19:14:39;;;;;;;5.05;1.88;;;17.80;58.50;;;;;;10577935;27;20694;-57
2022/01/27 19:19:41;;;;;;;6.13;1.73;;;17.80;58.50;;;;;;10593472;27;20808;-58
2022/01/27 19:24:43;;;;;;;4.60;1.55;;;17.90;58.50;;;;;;10578660;27;20034;-58
2022/01/27 19:29:46;;;;;;;6.53;1.95;;;17.90;58.50;;;;;;10606367;27;20027;-58
2022/01/27 19:34:47;;;;;;;7.80;2.08;;;17.80;58.40;;;;;;10593450;27;20024;-58
2022/01/27 19:39:48;;;;;;;5.57;2.47;;;17.80;58.70;;;;;;10576660;27;20023;-57
2022/01/27 19:44:48;;;;;;;5.85;1.77;;;17.80;58.90;;;;;;10586689;27;20027;-57
2022/01/27 19:49:52;;;;;;;4.40;1.35;;;17.80;59.60;;;;;;10579284;27;20523;-55
2022/01/27 19:54:54;;;;;;;5.32;1.67;;;17.90;59.20;;;;;;10595032;27;20363;-57
2022/01/27 19:59:56;;;;;;;3.65;1.33;;;17.90;59.30;;;;;;10580210;28;20027;-57
2022/01/27 20:04:56;;;;;;;5.07;1.80;;;17.80;59.20;;;;;;10569133;27;20113;-57
2022/01/27 20:09:57;;;;;;;5.88;1.77;;;17.80;59.10;;;;;;10622551;27;20106;-57
2022/01/27 20:14:58;;;;;;;5.18;1.27;;;17.80;58.90;;;;;;10591409;27;20369;-57
2022/01/27 20:19:58;;;;;;;4.55;1.27;;;17.80;58.70;;;;;;10586412;27;20062;-57
2022/01/27 20:25:01;;;;;;;3.58;1.35;;;17.80;58.70;;;;;;10581218;27;20039;-57
2022/01/27 20:30:04;;;;;;;2.75;1.00;;;17.80;58.60;;;;;;10578389;28;20422;-58
2022/01/27 20:35:05;;;;;;;3.55;1.30;;;17.80;58.50;;;;;;10562082;28;20025;-58
2022/01/27 20:40:09;;;;;;;5.35;1.70;;;17.80;58.50;;;;;;10582512;28;20043;-57
2022/01/27 20:45:11;;;;;;;3.05;1.02;;;17.80;58.30;;;;;;10578919;28;20110;-57
2022/01/27 20:50:12;;;;;;;2.83;1.17;;;17.80;58.40;;;;;;10619740;28;20390;-56
2022/01/27 20:55:13;;;;;;;4.00;1.42;;;17.70;58.30;;;;;;10620126;28;20535;-57
2022/01/27 21:00:15;;;;;;;3.03;1.20;;;17.80;58.30;;;;;;10588988;28;20035;-57
2022/01/27 21:05:16;;;;;;;3.83;1.77;;;17.70;58.20;;;;;;10588031;28;20075;-57
2022/01/27 21:10:16;;;;;;;2.65;1.00;;;17.80;58.20;;;;;;10575803;28;20031;-57
2022/01/27 21:15:18;;;;;;;6.32;1.50;;;17.80;58.20;;;;;;10588464;28;20019;-57
2022/01/27 21:20:23;;;;;;;3.22;0.95;;;17.70;58.90;;;;;;10569666;28;20519;-58
2022/01/27 21:25:24;;;;;;;1.60;0.93;;;17.80;58.10;;;;;;10608892;27;20027;-55
2022/01/27 21:30:24;;;;;;;3.80;1.23;;;17.80;58.00;;;;;;10609992;27;20632;-57
2022/01/27 21:35:26;;;;;;;4.07;1.35;;;17.80;57.90;;;;;;10610722;27;20069;-57
2022/01/27 21:40:28;;;;;;;1.42;0.80;;;17.80;57.90;;;;;;10596575;27;20168;-57
2022/01/27 21:45:28;;;;;;;2.17;0.73;;;17.80;57.80;;;;;;10592566;27;20371;-57
2022/01/27 21:50:29;;;;;;;3.65;1.33;;;17.80;57.90;;;;;;10596605;27;20066;-57
2022/01/27 21:55:31;;;;;;;2.58;0.85;;;17.80;57.80;;;;;;10583622;27;20027;-57
2022/01/27 22:00:33;;;;;;;3.40;1.02;;;17.80;57.80;;;;;;10582047;27;20035;-55
2022/01/27 22:05:34;;;;;;;3.58;1.33;;;17.80;57.70;;;;;;10609725;27;20055;-56
2022/01/27 22:10:35;;;;;;;3.25;1.38;;;17.80;57.70;;;;;;10585238;28;20440;-57
2022/01/27 22:15:36;;;;;;;1.38;0.70;;;17.80;57.70;;;;;;10585245;27;20136;-58
2022/01/27 22:20:36;;;;;;;1.73;0.70;;;17.80;57.60;;;;;;10593341;27;20062;-57
2022/01/27 22:25:37;;;;;;;2.53;0.85;;;17.80;57.50;;;;;;10566527;27;20356;-57
2022/01/27 22:30:38;;;;;;;2.03;0.90;;;17.90;57.40;;;;;;10584158;28;20023;-57
2022/01/27 22:35:39;;;;;;;1.45;0.65;;;17.90;57.20;;;;;;10575602;27;20050;-57
2022/01/27 22:40:40;;;;;;;1.50;0.60;;;17.90;57.20;;;;;;10583858;28;20115;-56
2022/01/27 22:45:40;;;;;;;1.63;0.68;;;17.90;57.20;;;;;;10595945;27;20019;-57
2022/01/27 22:50:41;;;;;;;2.60;0.70;;;17.90;57.30;;;;;;10584963;27;20037;-56
2022/01/27 22:55:42;;;;;;;2.33;0.65;;;17.90;57.40;;;;;;10606168;27;20031;-57
2022/01/27 23:00:44;;;;;;;1.65;0.80;;;17.90;57.40;;;;;;10624844;27;20035;-57
2022/01/27 23:05:45;;;;;;;1.48;0.63;;;17.90;57.30;;;;;;10610873;27;20431;-57
2022/01/27 23:10:45;;;;;;;2.50;1.08;;;17.90;57.20;;;;;;10607593;27;20027;-57
2022/01/27 23:16:15;;;;;;;3.08;0.80;;;17.90;57.10;;;;;;10598897;27;20031;-57
2022/01/27 23:21:31;;;;;;;1.75;0.68;;;17.90;57.20;;;;;;10586819;27;20051;-57
2022/01/27 23:26:43;;;;;;;2.13;0.82;;;17.90;57.00;;;;;;10595148;27;20031;-55
2022/01/27 23:31:48;;;;;;;1.80;0.60;;;17.90;57.00;;;;;;10594901;27;20223;-57
2022/01/27 23:36:56;;;;;;;1.95;0.70;;;17.90;56.80;;;;;;10581939;28;20564;-56
2022/01/27 23:42:04;;;;;;;2.08;1.08;;;18.00;56.90;;;;;;10581336;28;20023;-56
2022/01/27 23:57:42;;;;;;;2.03;0.80;;;17.90;56.90;;;;;;10623030;27;20056;-57
